Peniel Crossroads, South Carolina
Current Conditions -  °F | °C
As of 1:53 AM on Wednesday 22 Oct 2014 (Local Time) from KFLO Reporting Station
Overcast Overcast  
Wind Chill: 60°   Ceiling: 8000
Heat Index: 60°   Visibility: 10mi
Dew Point: 40°   Wind: 12mph
Humidity: 47%   Direction: 360°N
Pressure: 29.94"   Gusts: NA
Location:  34.07°N, 79.933°W
Report Text: KFLO 220553Z AUTO 36010KT 10SM OVC080 16/04 A2994 RMK AO2 SLP136 T01560044 10194 20156 53004
Loading
Personal Weather Stations






























Interactive Weather Map
Tropical Storm Tracking
New forecast layout! Learn more

10-Day Weather Forecast

Advertisements
Track Severe Weather on mobile